sensor_id;sensor_type;location;lat;lon;timestamp;temperature;humidity
14057;DHT22;7103;54.300;10.180;2022-07-04T00:00:15;15.50;1.00
14057;DHT22;7103;54.300;10.180;2022-07-04T00:02:43;15.60;1.00
14057;DHT22;7103;54.300;10.180;2022-07-04T00:05:11;15.60;1.00
14057;DHT22;7103;54.300;10.180;2022-07-04T00:07:40;15.50;1.00
14057;DHT22;7103;54.300;10.180;2022-07-04T00:10:08;15.50;1.00
14057;DHT22;7103;54.300;10.180;2022-07-04T00:12:36;15.50;1.00
14057;DHT22;7103;54.300;10.180;2022-07-04T00:15:05;15.50;1.00
14057;DHT22;7103;54.300;10.180;2022-07-04T00:17:33;15.50;1.00
14057;DHT22;7103;54.300;10.180;2022-07-04T00:20:00;15.40;1.00
14057;DHT22;7103;54.300;10.180;2022-07-04T00:22:27;15.40;1.00
14057;DHT22;7103;54.300;10.180;2022-07-04T00:24:53;15.40;1.00
14057;DHT22;7103;54.300;10.180;2022-07-04T00:27:20;15.30;1.00
14057;DHT22;7103;54.300;10.180;2022-07-04T00:29:47;15.40;1.00
14057;DHT22;7103;54.300;10.180;2022-07-04T00:32:14;15.40;1.00
14057;DHT22;7103;54.300;10.180;2022-07-04T00:34:41;15.30;1.00
14057;DHT22;7103;54.300;10.180;2022-07-04T00:37:08;15.30;1.00
14057;DHT22;7103;54.300;10.180;2022-07-04T00:39:35;15.40;1.00
14057;DHT22;7103;54.300;10.180;2022-07-04T00:42:07;15.40;1.00
14057;DHT22;7103;54.300;10.180;2022-07-04T00:44:34;15.40;1.00
14057;DHT22;7103;54.300;10.180;2022-07-04T00:47:05;15.40;1.00
14057;DHT22;7103;54.300;10.180;2022-07-04T00:49:33;15.40;1.00
14057;DHT22;7103;54.300;10.180;2022-07-04T00:52:01;15.40;1.00
14057;DHT22;7103;54.300;10.180;2022-07-04T00:54:30;15.30;1.00
14057;DHT22;7103;54.300;10.180;2022-07-04T00:56:58;15.30;1.00
14057;DHT22;7103;54.300;10.180;2022-07-04T00:59:26;15.30;1.00
14057;DHT22;7103;54.300;10.180;2022-07-04T01:01:53;15.30;1.00
14057;DHT22;7103;54.300;10.180;2022-07-04T01:04:20;15.30;1.00
14057;DHT22;7103;54.300;10.180;2022-07-04T01:06:47;15.20;1.00
14057;DHT22;7103;54.300;10.180;2022-07-04T01:09:14;15.20;1.00
14057;DHT22;7103;54.300;10.180;2022-07-04T01:11:41;15.30;1.00
14057;DHT22;7103;54.300;10.180;2022-07-04T01:14:08;15.30;1.00
14057;DHT22;7103;54.300;10.180;2022-07-04T01:16:35;15.30;1.00
14057;DHT22;7103;54.300;10.180;2022-07-04T01:19:02;15.20;1.00
14057;DHT22;7103;54.300;10.180;2022-07-04T01:21:31;15.20;1.00
14057;DHT22;7103;54.300;10.180;2022-07-04T01:23:58;15.10;1.00
14057;DHT22;7103;54.300;10.180;2022-07-04T01:26:25;15.00;1.00
14057;DHT22;7103;54.300;10.180;2022-07-04T01:28:52;15.00;1.00
14057;DHT22;7103;54.300;10.180;2022-07-04T01:31:18;14.90;1.00
14057;DHT22;7103;54.300;10.180;2022-07-04T01:33:45;14.90;1.00
14057;DHT22;7103;54.300;10.180;2022-07-04T01:36:12;14.90;1.00
14057;DHT22;7103;54.300;10.180;2022-07-04T01:38:39;14.90;1.00
14057;DHT22;7103;54.300;10.180;2022-07-04T01:41:06;14.90;1.00
14057;DHT22;7103;54.300;10.180;2022-07-04T01:43:33;14.90;1.00
14057;DHT22;7103;54.300;10.180;2022-07-04T01:46:01;15.00;1.00
14057;DHT22;7103;54.300;10.180;2022-07-04T01:48:29;14.90;1.00
14057;DHT22;7103;54.300;10.180;2022-07-04T01:50:56;15.00;1.00
14057;DHT22;7103;54.300;10.180;2022-07-04T01:53:23;14.90;1.00
14057;DHT22;7103;54.300;10.180;2022-07-04T01:55:50;14.80;1.00
14057;DHT22;7103;54.300;10.180;2022-07-04T01:58:16;14.80;1.00
14057;DHT22;7103;54.300;10.180;2022-07-04T02:00:43;14.80;1.00
14057;DHT22;7103;54.300;10.180;2022-07-04T02:03:29;14.90;1.00
14057;DHT22;7103;54.300;10.180;2022-07-04T02:05:56;14.90;1.00
14057;DHT22;7103;54.300;10.180;2022-07-04T02:08:22;15.00;1.00
14057;DHT22;7103;54.300;10.180;2022-07-04T02:11:09;14.90;1.00
14057;DHT22;7103;54.300;10.180;2022-07-04T02:13:36;14.80;1.00
14057;DHT22;7103;54.300;10.180;2022-07-04T02:16:03;14.80;1.00
14057;DHT22;7103;54.300;10.180;2022-07-04T02:18:30;14.90;1.00
14057;DHT22;7103;54.300;10.180;2022-07-04T02:20:57;14.90;1.00
14057;DHT22;7103;54.300;10.180;2022-07-04T02:23:24;14.80;1.00
14057;DHT22;7103;54.300;10.180;2022-07-04T02:25:51;14.80;1.00
14057;DHT22;7103;54.300;10.180;2022-07-04T02:28:18;14.80;1.00
14057;DHT22;7103;54.300;10.180;2022-07-04T02:30:45;14.70;1.00
14057;DHT22;7103;54.300;10.180;2022-07-04T02:33:12;14.70;1.00
14057;DHT22;7103;54.300;10.180;2022-07-04T02:35:39;14.70;1.00
14057;DHT22;7103;54.300;10.180;2022-07-04T02:38:06;14.70;1.00
14057;DHT22;7103;54.300;10.180;2022-07-04T02:40:33;14.60;1.00
14057;DHT22;7103;54.300;10.180;2022-07-04T02:43:00;14.60;1.00
14057;DHT22;7103;54.300;10.180;2022-07-04T02:45:26;14.60;1.00
14057;DHT22;7103;54.300;10.180;2022-07-04T02:47:53;14.70;1.00
14057;DHT22;7103;54.300;10.180;2022-07-04T02:50:20;14.70;1.00
14057;DHT22;7103;54.300;10.180;2022-07-04T02:52:47;14.70;1.00
14057;DHT22;7103;54.300;10.180;2022-07-04T02:55:14;14.60;1.00
14057;DHT22;7103;54.300;10.180;2022-07-04T02:57:41;14.70;1.00
14057;DHT22;7103;54.300;10.180;2022-07-04T03:00:08;14.70;1.00
14057;DHT22;7103;54.300;10.180;2022-07-04T03:02:35;14.80;1.00
14057;DHT22;7103;54.300;10.180;2022-07-04T03:05:02;15.00;1.00
14057;DHT22;7103;54.300;10.180;2022-07-04T03:07:29;15.00;1.00
14057;DHT22;7103;54.300;10.180;2022-07-04T03:09:56;14.90;1.00
14057;DHT22;7103;54.300;10.180;2022-07-04T03:12:23;14.80;1.00
14057;DHT22;7103;54.300;10.180;2022-07-04T03:14:50;14.70;1.00
14057;DHT22;7103;54.300;10.180;2022-07-04T03:17:17;14.70;1.00
14057;DHT22;7103;54.300;10.180;2022-07-04T03:19:44;14.80;1.00
14057;DHT22;7103;54.300;10.180;2022-07-04T03:22:11;14.80;1.00
14057;DHT22;7103;54.300;10.180;2022-07-04T03:24:37;14.80;1.00
14057;DHT22;7103;54.300;10.180;2022-07-04T03:27:04;14.80;1.00
14057;DHT22;7103;54.300;10.180;2022-07-04T03:29:31;14.70;1.00
14057;DHT22;7103;54.300;10.180;2022-07-04T03:31:58;14.80;1.00
14057;DHT22;7103;54.300;10.180;2022-07-04T03:34:25;14.70;1.00
14057;DHT22;7103;54.300;10.180;2022-07-04T03:36:52;14.70;1.00
14057;DHT22;7103;54.300;10.180;2022-07-04T03:39:19;14.60;1.00
14057;DHT22;7103;54.300;10.180;2022-07-04T03:41:46;14.60;1.00
14057;DHT22;7103;54.300;10.180;2022-07-04T03:44:13;14.60;1.00
14057;DHT22;7103;54.300;10.180;2022-07-04T03:46:40;14.60;1.00
14057;DHT22;7103;54.300;10.180;2022-07-04T03:49:07;14.70;1.00
14057;DHT22;7103;54.300;10.180;2022-07-04T03:51:34;14.70;1.00
14057;DHT22;7103;54.300;10.180;2022-07-04T03:54:01;14.70;1.00
14057;DHT22;7103;54.300;10.180;2022-07-04T03:56:32;14.70;1.00
14057;DHT22;7103;54.300;10.180;2022-07-04T03:58:59;14.70;1.00
14057;DHT22;7103;54.300;10.180;2022-07-04T04:01:26;14.70;1.00
14057;DHT22;7103;54.300;10.180;2022-07-04T04:03:53;14.60;1.00
14057;DHT22;7103;54.300;10.180;2022-07-04T04:06:38;14.60;1.00
14057;DHT22;7103;54.300;10.180;2022-07-04T04:09:05;14.60;1.00
14057;DHT22;7103;54.300;10.180;2022-07-04T04:11:36;14.70;1.00
14057;DHT22;7103;54.300;10.180;2022-07-04T04:14:03;14.70;1.00
14057;DHT22;7103;54.300;10.180;2022-07-04T04:16:29;14.70;1.00
14057;DHT22;7103;54.300;10.180;2022-07-04T04:18:56;14.80;1.00
14057;DHT22;7103;54.300;10.180;2022-07-04T04:21:24;14.80;1.00
14057;DHT22;7103;54.300;10.180;2022-07-04T04:23:51;14.80;1.00
14057;DHT22;7103;54.300;10.180;2022-07-04T04:26:17;14.90;1.00
14057;DHT22;7103;54.300;10.180;2022-07-04T04:28:44;14.90;1.00
14057;DHT22;7103;54.300;10.180;2022-07-04T04:31:12;15.00;1.00
14057;DHT22;7103;54.300;10.180;2022-07-04T04:33:41;15.50;1.00
14057;DHT22;7103;54.300;10.180;2022-07-04T04:36:08;15.90;1.00
14057;DHT22;7103;54.300;10.180;2022-07-04T04:38:35;16.10;1.00
14057;DHT22;7103;54.300;10.180;2022-07-04T04:41:02;16.10;1.00
14057;DHT22;7103;54.300;10.180;2022-07-04T04:43:29;16.00;1.00
14057;DHT22;7103;54.300;10.180;2022-07-04T04:45:56;15.80;1.00
14057;DHT22;7103;54.300;10.180;2022-07-04T04:48:24;15.70;1.00
14057;DHT22;7103;54.300;10.180;2022-07-04T04:50:51;15.60;1.00
14057;DHT22;7103;54.300;10.180;2022-07-04T04:53:18;15.60;1.00
14057;DHT22;7103;54.300;10.180;2022-07-04T04:55:45;15.40;1.00
14057;DHT22;7103;54.300;10.180;2022-07-04T04:58:12;15.30;1.00
14057;DHT22;7103;54.300;10.180;2022-07-04T05:00:38;15.40;1.00
14057;DHT22;7103;54.300;10.180;2022-07-04T05:03:25;15.50;1.00
14057;DHT22;7103;54.300;10.180;2022-07-04T05:05:52;15.40;1.00
14057;DHT22;7103;54.300;10.180;2022-07-04T05:08:19;15.40;1.00
14057;DHT22;7103;54.300;10.180;2022-07-04T05:10:46;15.40;1.00
14057;DHT22;7103;54.300;10.180;2022-07-04T05:13:13;15.30;1.00
14057;DHT22;7103;54.300;10.180;2022-07-04T05:15:40;15.30;1.00
14057;DHT22;7103;54.300;10.180;2022-07-04T05:18:07;15.30;1.00
14057;DHT22;7103;54.300;10.180;2022-07-04T05:20:33;15.60;1.00
14057;DHT22;7103;54.300;10.180;2022-07-04T05:23:00;15.70;1.00
14057;DHT22;7103;54.300;10.180;2022-07-04T05:25:30;15.80;1.00
14057;DHT22;7103;54.300;10.180;2022-07-04T05:27:58;15.90;1.00
14057;DHT22;7103;54.300;10.180;2022-07-04T05:30:25;15.80;1.00
14057;DHT22;7103;54.300;10.180;2022-07-04T05:32:55;15.90;1.00
14057;DHT22;7103;54.300;10.180;2022-07-04T05:35:21;15.90;1.00
14057;DHT22;7103;54.300;10.180;2022-07-04T05:37:48;16.20;1.00
14057;DHT22;7103;54.300;10.180;2022-07-04T05:40:15;16.70;1.00
14057;DHT22;7103;54.300;10.180;2022-07-04T05:42:42;17.20;1.00
14057;DHT22;7103;54.300;10.180;2022-07-04T05:45:09;17.90;1.00
14057;DHT22;7103;54.300;10.180;2022-07-04T05:47:36;18.40;1.00
14057;DHT22;7103;54.300;10.180;2022-07-04T05:50:25;18.60;1.00
14057;DHT22;7103;54.300;10.180;2022-07-04T05:52:58;19.00;1.00
14057;DHT22;7103;54.300;10.180;2022-07-04T05:55:26;19.40;1.00
14057;DHT22;7103;54.300;10.180;2022-07-04T05:57:52;19.80;1.00
14057;DHT22;7103;54.300;10.180;2022-07-04T06:00:20;20.10;1.00
14057;DHT22;7103;54.300;10.180;2022-07-04T06:02:47;20.30;1.00
14057;DHT22;7103;54.300;10.180;2022-07-04T06:05:14;20.30;1.00
14057;DHT22;7103;54.300;10.180;2022-07-04T06:07:41;20.30;1.00
14057;DHT22;7103;54.300;10.180;2022-07-04T06:10:08;20.40;1.00
14057;DHT22;7103;54.300;10.180;2022-07-04T06:12:35;20.80;1.00
14057;DHT22;7103;54.300;10.180;2022-07-04T06:15:03;21.00;1.00
14057;DHT22;7103;54.300;10.180;2022-07-04T06:17:29;21.20;1.00
14057;DHT22;7103;54.300;10.180;2022-07-04T06:19:56;21.40;1.00
14057;DHT22;7103;54.300;10.180;2022-07-04T06:22:23;21.40;1.00
14057;DHT22;7103;54.300;10.180;2022-07-04T06:24:51;21.60;1.00
14057;DHT22;7103;54.300;10.180;2022-07-04T06:27:18;21.80;1.00
14057;DHT22;7103;54.300;10.180;2022-07-04T06:29:45;22.10;1.00
14057;DHT22;7103;54.300;10.180;2022-07-04T06:32:12;22.40;1.00
14057;DHT22;7103;54.300;10.180;2022-07-04T06:34:39;22.30;1.00
14057;DHT22;7103;54.300;10.180;2022-07-04T06:37:24;22.40;1.00
14057;DHT22;7103;54.300;10.180;2022-07-04T06:39:51;22.60;1.00
14057;DHT22;7103;54.300;10.180;2022-07-04T06:42:18;22.60;1.00
14057;DHT22;7103;54.300;10.180;2022-07-04T06:44:45;22.90;1.00
14057;DHT22;7103;54.300;10.180;2022-07-04T06:47:12;22.70;1.00
14057;DHT22;7103;54.300;10.180;2022-07-04T06:49:39;22.40;1.00
14057;DHT22;7103;54.300;10.180;2022-07-04T06:52:06;22.50;1.00
14057;DHT22;7103;54.300;10.180;2022-07-04T06:54:33;22.80;1.00
14057;DHT22;7103;54.300;10.180;2022-07-04T06:57:00;22.60;1.00
14057;DHT22;7103;54.300;10.180;2022-07-04T06:59:47;22.30;1.00
14057;DHT22;7103;54.300;10.180;2022-07-04T07:02:14;22.00;1.00
14057;DHT22;7103;54.300;10.180;2022-07-04T07:04:41;21.70;1.00
14057;DHT22;7103;54.300;10.180;2022-07-04T07:07:08;21.20;1.00
14057;DHT22;7103;54.300;10.180;2022-07-04T07:09:35;21.00;1.00
14057;DHT22;7103;54.300;10.180;2022-07-04T07:12:02;20.80;1.00
14057;DHT22;7103;54.300;10.180;2022-07-04T07:14:29;20.90;1.00
14057;DHT22;7103;54.300;10.180;2022-07-04T07:16:56;20.70;1.00
14057;DHT22;7103;54.300;10.180;2022-07-04T07:19:23;20.60;1.00
14057;DHT22;7103;54.300;10.180;2022-07-04T07:21:50;20.90;1.00
14057;DHT22;7103;54.300;10.180;2022-07-04T07:24:17;21.60;1.00
14057;DHT22;7103;54.300;10.180;2022-07-04T07:26:44;21.70;1.00
14057;DHT22;7103;54.300;10.180;2022-07-04T07:29:11;21.60;1.00
14057;DHT22;7103;54.300;10.180;2022-07-04T07:31:38;21.20;1.00
14057;DHT22;7103;54.300;10.180;2022-07-04T07:34:05;21.20;1.00
14057;DHT22;7103;54.300;10.180;2022-07-04T07:36:31;21.30;1.00
14057;DHT22;7103;54.300;10.180;2022-07-04T07:39:01;22.20;1.00
14057;DHT22;7103;54.300;10.180;2022-07-04T07:41:28;22.90;1.00
14057;DHT22;7103;54.300;10.180;2022-07-04T07:43:58;22.80;1.00
14057;DHT22;7103;54.300;10.180;2022-07-04T07:46:25;22.60;1.00
14057;DHT22;7103;54.300;10.180;2022-07-04T07:48:52;22.00;1.00
14057;DHT22;7103;54.300;10.180;2022-07-04T07:51:19;22.10;1.00
14057;DHT22;7103;54.300;10.180;2022-07-04T07:53:46;22.30;1.00
14057;DHT22;7103;54.300;10.180;2022-07-04T07:56:32;22.80;1.00
14057;DHT22;7103;54.300;10.180;2022-07-04T07:59:00;22.60;1.00
14057;DHT22;7103;54.300;10.180;2022-07-04T08:01:27;22.30;1.00
14057;DHT22;7103;54.300;10.180;2022-07-04T08:03:54;22.30;1.00
14057;DHT22;7103;54.300;10.180;2022-07-04T08:06:45;22.80;1.00
14057;DHT22;7103;54.300;10.180;2022-07-04T08:09:33;22.50;1.00
14057;DHT22;7103;54.300;10.180;2022-07-04T08:12:01;22.00;1.00
14057;DHT22;7103;54.300;10.180;2022-07-04T08:14:29;22.50;1.00
14057;DHT22;7103;54.300;10.180;2022-07-04T08:16:57;23.00;1.00
14057;DHT22;7103;54.300;10.180;2022-07-04T08:19:25;23.20;1.00
14057;DHT22;7103;54.300;10.180;2022-07-04T08:21:55;23.70;1.00
14057;DHT22;7103;54.300;10.180;2022-07-04T08:24:40;23.80;1.00
14057;DHT22;7103;54.300;10.180;2022-07-04T08:27:10;24.50;1.00
14057;DHT22;7103;54.300;10.180;2022-07-04T08:29:37;24.70;1.00
14057;DHT22;7103;54.300;10.180;2022-07-04T08:32:04;25.10;1.00
14057;DHT22;7103;54.300;10.180;2022-07-04T08:34:35;25.00;1.00
14057;DHT22;7103;54.300;10.180;2022-07-04T08:37:05;25.40;1.00
14057;DHT22;7103;54.300;10.180;2022-07-04T08:39:35;25.80;1.00
14057;DHT22;7103;54.300;10.180;2022-07-04T08:42:05;26.10;1.00
14057;DHT22;7103;54.300;10.180;2022-07-04T08:44:37;26.10;1.00
14057;DHT22;7103;54.300;10.180;2022-07-04T08:47:12;25.90;1.00
14057;DHT22;7103;54.300;10.180;2022-07-04T08:49:53;25.70;1.00
14057;DHT22;7103;54.300;10.180;2022-07-04T08:52:35;25.40;1.00
14057;DHT22;7103;54.300;10.180;2022-07-04T08:55:04;24.30;1.00
14057;DHT22;7103;54.300;10.180;2022-07-04T08:57:54;24.10;1.00
14057;DHT22;7103;54.300;10.180;2022-07-04T09:00:40;24.60;1.00
14057;DHT22;7103;54.300;10.180;2022-07-04T09:03:08;24.90;1.00
14057;DHT22;7103;54.300;10.180;2022-07-04T09:05:36;25.20;1.00
14057;DHT22;7103;54.300;10.180;2022-07-04T09:08:04;25.50;1.00
14057;DHT22;7103;54.300;10.180;2022-07-04T09:10:31;25.60;1.00
14057;DHT22;7103;54.300;10.180;2022-07-04T09:13:01;24.90;1.00
14057;DHT22;7103;54.300;10.180;2022-07-04T09:15:38;24.20;1.00
14057;DHT22;7103;54.300;10.180;2022-07-04T09:18:06;23.80;1.00
14057;DHT22;7103;54.300;10.180;2022-07-04T09:20:33;23.80;1.00
14057;DHT22;7103;54.300;10.180;2022-07-04T09:23:03;23.80;1.00
14057;DHT22;7103;54.300;10.180;2022-07-04T09:25:42;23.50;1.00
14057;DHT22;7103;54.300;10.180;2022-07-04T09:28:09;23.10;1.00
14057;DHT22;7103;54.300;10.180;2022-07-04T09:30:47;22.90;1.00
14057;DHT22;7103;54.300;10.180;2022-07-04T09:33:17;22.80;1.00
14057;DHT22;7103;54.300;10.180;2022-07-04T09:35:45;22.80;1.00
14057;DHT22;7103;54.300;10.180;2022-07-04T09:38:21;22.90;1.00
14057;DHT22;7103;54.300;10.180;2022-07-04T09:40:52;23.00;1.00
14057;DHT22;7103;54.300;10.180;2022-07-04T09:44:02;22.80;1.00
14057;DHT22;7103;54.300;10.180;2022-07-04T09:46:31;22.50;1.00
14057;DHT22;7103;54.300;10.180;2022-07-04T09:48:58;22.60;1.00
14057;DHT22;7103;54.300;10.180;2022-07-04T09:51:41;23.10;1.00
14057;DHT22;7103;54.300;10.180;2022-07-04T09:54:18;23.80;1.00
14057;DHT22;7103;54.300;10.180;2022-07-04T09:56:50;23.90;1.00
14057;DHT22;7103;54.300;10.180;2022-07-04T09:59:18;23.40;1.00
14057;DHT22;7103;54.300;10.180;2022-07-04T10:01:46;23.00;1.00
14057;DHT22;7103;54.300;10.180;2022-07-04T10:04:14;22.60;1.00
14057;DHT22;7103;54.300;10.180;2022-07-04T10:06:42;22.40;1.00
14057;DHT22;7103;54.300;10.180;2022-07-04T10:09:17;22.00;1.00
14057;DHT22;7103;54.300;10.180;2022-07-04T10:11:46;21.90;1.00
14057;DHT22;7103;54.300;10.180;2022-07-04T10:14:14;21.60;1.00
14057;DHT22;7103;54.300;10.180;2022-07-04T10:16:41;21.40;1.00
14057;DHT22;7103;54.300;10.180;2022-07-04T10:19:09;21.30;1.00
14057;DHT22;7103;54.300;10.180;2022-07-04T10:21:36;21.20;1.00
14057;DHT22;7103;54.300;10.180;2022-07-04T10:24:04;20.90;1.00
14057;DHT22;7103;54.300;10.180;2022-07-04T10:26:31;20.70;1.00
14057;DHT22;7103;54.300;10.180;2022-07-04T10:28:58;20.90;1.00
14057;DHT22;7103;54.300;10.180;2022-07-04T10:31:27;21.40;1.00
14057;DHT22;7103;54.300;10.180;2022-07-04T10:33:57;21.70;1.00
14057;DHT22;7103;54.300;10.180;2022-07-04T10:36:26;22.10;1.00
14057;DHT22;7103;54.300;10.180;2022-07-04T10:39:02;22.20;1.00
14057;DHT22;7103;54.300;10.180;2022-07-04T10:41:30;22.10;1.00
14057;DHT22;7103;54.300;10.180;2022-07-04T10:44:03;22.00;1.00
14057;DHT22;7103;54.300;10.180;2022-07-04T10:46:37;21.70;1.00
14057;DHT22;7103;54.300;10.180;2022-07-04T10:49:19;21.60;1.00
14057;DHT22;7103;54.300;10.180;2022-07-04T10:51:49;21.40;1.00
14057;DHT22;7103;54.300;10.180;2022-07-04T10:54:34;21.30;1.00
14057;DHT22;7103;54.300;10.180;2022-07-04T10:57:13;21.10;1.00
14057;DHT22;7103;54.300;10.180;2022-07-04T11:02:31;21.80;1.00
14057;DHT22;7103;54.300;10.180;2022-07-04T11:05:09;23.00;1.00
14057;DHT22;7103;54.300;10.180;2022-07-04T11:18:08;24.50;1.00
14057;DHT22;7103;54.300;10.180;2022-07-04T11:20:36;24.30;1.00
14057;DHT22;7103;54.300;10.180;2022-07-04T11:23:05;23.90;1.00
14057;DHT22;7103;54.300;10.180;2022-07-04T11:25:33;23.20;1.00
14057;DHT22;7103;54.300;10.180;2022-07-04T11:31:09;22.40;1.00
14057;DHT22;7103;54.300;10.180;2022-07-04T11:33:37;22.30;1.00
14057;DHT22;7103;54.300;10.180;2022-07-04T11:36:19;22.00;1.00
14057;DHT22;7103;54.300;10.180;2022-07-04T11:39:04;22.10;1.00
14057;DHT22;7103;54.300;10.180;2022-07-04T11:44:23;23.80;1.00
14057;DHT22;7103;54.300;10.180;2022-07-04T11:49:49;23.10;1.00
14057;DHT22;7103;54.300;10.180;2022-07-04T11:52:18;22.90;1.00
14057;DHT22;7103;54.300;10.180;2022-07-04T11:55:06;22.70;1.00
14057;DHT22;7103;54.300;10.180;2022-07-04T11:57:42;22.60;1.00
14057;DHT22;7103;54.300;10.180;2022-07-04T12:00:12;22.70;1.00
14057;DHT22;7103;54.300;10.180;2022-07-04T12:02:44;23.40;1.00
14057;DHT22;7103;54.300;10.180;2022-07-04T12:05:13;23.80;1.00
14057;DHT22;7103;54.300;10.180;2022-07-04T12:07:42;23.80;1.00
14057;DHT22;7103;54.300;10.180;2022-07-04T12:10:28;23.70;1.00
14057;DHT22;7103;54.300;10.180;2022-07-04T12:15:43;23.10;1.00
14057;DHT22;7103;54.300;10.180;2022-07-04T12:18:25;22.60;1.00
14057;DHT22;7103;54.300;10.180;2022-07-04T12:20:56;22.50;1.00
14057;DHT22;7103;54.300;10.180;2022-07-04T12:23:39;22.30;1.00
14057;DHT22;7103;54.300;10.180;2022-07-04T12:26:26;22.20;1.00
14057;DHT22;7103;54.300;10.180;2022-07-04T12:28:55;22.40;1.00
14057;DHT22;7103;54.300;10.180;2022-07-04T12:31:40;23.10;1.00
14057;DHT22;7103;54.300;10.180;2022-07-04T12:34:17;23.40;1.00
14057;DHT22;7103;54.300;10.180;2022-07-04T12:36:49;23.80;1.00
14057;DHT22;7103;54.300;10.180;2022-07-04T12:39:33;24.20;1.00
14057;DHT22;7103;54.300;10.180;2022-07-04T12:42:19;24.40;1.00
14057;DHT22;7103;54.300;10.180;2022-07-04T12:44:47;24.30;1.00
14057;DHT22;7103;54.300;10.180;2022-07-04T12:47:18;24.40;1.00
14057;DHT22;7103;54.300;10.180;2022-07-04T12:50:05;24.40;1.00
14057;DHT22;7103;54.300;10.180;2022-07-04T12:52:32;24.60;1.00
14057;DHT22;7103;54.300;10.180;2022-07-04T12:55:04;24.30;1.00
14057;DHT22;7103;54.300;10.180;2022-07-04T12:57:36;23.90;1.00
14057;DHT22;7103;54.300;10.180;2022-07-04T13:00:03;23.80;1.00
14057;DHT22;7103;54.300;10.180;2022-07-04T13:02:51;23.60;1.00
14057;DHT22;7103;54.300;10.180;2022-07-04T13:05:18;23.20;1.00
14057;DHT22;7103;54.300;10.180;2022-07-04T13:07:46;23.50;1.00
14057;DHT22;7103;54.300;10.180;2022-07-04T13:10:13;23.60;1.00
14057;DHT22;7103;54.300;10.180;2022-07-04T13:12:42;23.50;1.00
14057;DHT22;7103;54.300;10.180;2022-07-04T13:15:09;23.50;1.00
14057;DHT22;7103;54.300;10.180;2022-07-04T13:17:38;23.30;1.00
14057;DHT22;7103;54.300;10.180;2022-07-04T13:20:06;23.30;1.00
14057;DHT22;7103;54.300;10.180;2022-07-04T13:22:33;23.20;1.00
14057;DHT22;7103;54.300;10.180;2022-07-04T13:25:00;23.10;1.00
14057;DHT22;7103;54.300;10.180;2022-07-04T13:27:29;22.90;1.00
14057;DHT22;7103;54.300;10.180;2022-07-04T13:29:56;23.20;1.00
14057;DHT22;7103;54.300;10.180;2022-07-04T13:32:23;23.50;1.00
14057;DHT22;7103;54.300;10.180;2022-07-04T13:34:50;23.70;1.00
14057;DHT22;7103;54.300;10.180;2022-07-04T13:37:17;23.80;1.00
14057;DHT22;7103;54.300;10.180;2022-07-04T13:39:45;24.00;1.00
14057;DHT22;7103;54.300;10.180;2022-07-04T13:42:18;24.40;1.00
14057;DHT22;7103;54.300;10.180;2022-07-04T13:45:06;24.40;1.00
14057;DHT22;7103;54.300;10.180;2022-07-04T13:47:34;24.10;1.00
14057;DHT22;7103;54.300;10.180;2022-07-04T13:50:01;23.50;1.00
14057;DHT22;7103;54.300;10.180;2022-07-04T13:52:30;23.40;1.00
14057;DHT22;7103;54.300;10.180;2022-07-04T13:54:58;23.60;1.00
14057;DHT22;7103;54.300;10.180;2022-07-04T13:57:25;23.80;1.00
14057;DHT22;7103;54.300;10.180;2022-07-04T13:59:52;24.00;1.00
14057;DHT22;7103;54.300;10.180;2022-07-04T14:02:19;24.20;1.00
14057;DHT22;7103;54.300;10.180;2022-07-04T14:04:46;24.20;1.00
14057;DHT22;7103;54.300;10.180;2022-07-04T14:07:13;23.90;1.00
14057;DHT22;7103;54.300;10.180;2022-07-04T14:09:46;24.00;1.00
14057;DHT22;7103;54.300;10.180;2022-07-04T14:12:13;24.10;1.00
14057;DHT22;7103;54.300;10.180;2022-07-04T14:14:40;24.10;1.00
14057;DHT22;7103;54.300;10.180;2022-07-04T14:17:08;23.90;1.00
14057;DHT22;7103;54.300;10.180;2022-07-04T14:19:55;23.70;1.00
14057;DHT22;7103;54.300;10.180;2022-07-04T14:22:22;23.30;1.00
14057;DHT22;7103;54.300;10.180;2022-07-04T14:24:49;23.10;1.00
14057;DHT22;7103;54.300;10.180;2022-07-04T14:27:26;23.00;1.00
14057;DHT22;7103;54.300;10.180;2022-07-04T14:29:52;22.90;1.00
14057;DHT22;7103;54.300;10.180;2022-07-04T14:32:19;23.20;1.00
14057;DHT22;7103;54.300;10.180;2022-07-04T14:34:49;23.30;1.00
14057;DHT22;7103;54.300;10.180;2022-07-04T14:37:16;22.90;1.00
14057;DHT22;7103;54.300;10.180;2022-07-04T14:39:45;23.00;1.00
14057;DHT22;7103;54.300;10.180;2022-07-04T14:42:15;23.00;1.00
14057;DHT22;7103;54.300;10.180;2022-07-04T14:44:43;23.40;1.00
14057;DHT22;7103;54.300;10.180;2022-07-04T14:47:13;23.30;1.00
14057;DHT22;7103;54.300;10.180;2022-07-04T14:49:40;23.50;1.00
14057;DHT22;7103;54.300;10.180;2022-07-04T14:52:07;23.60;1.00
14057;DHT22;7103;54.300;10.180;2022-07-04T14:54:36;23.40;1.00
14057;DHT22;7103;54.300;10.180;2022-07-04T14:57:03;23.30;1.00
14057;DHT22;7103;54.300;10.180;2022-07-04T14:59:30;23.30;1.00
14057;DHT22;7103;54.300;10.180;2022-07-04T15:01:58;23.50;1.00
14057;DHT22;7103;54.300;10.180;2022-07-04T15:04:25;23.70;1.00
14057;DHT22;7103;54.300;10.180;2022-07-04T15:06:55;23.70;1.00
14057;DHT22;7103;54.300;10.180;2022-07-04T15:09:22;23.50;1.00
14057;DHT22;7103;54.300;10.180;2022-07-04T15:11:52;23.40;1.00
14057;DHT22;7103;54.300;10.180;2022-07-04T15:14:18;23.00;1.00
14057;DHT22;7103;54.300;10.180;2022-07-04T15:16:45;23.00;1.00
14057;DHT22;7103;54.300;10.180;2022-07-04T15:19:12;22.80;1.00
14057;DHT22;7103;54.300;10.180;2022-07-04T15:21:40;22.80;1.00
14057;DHT22;7103;54.300;10.180;2022-07-04T15:24:26;22.80;1.00
14057;DHT22;7103;54.300;10.180;2022-07-04T15:26:53;22.60;1.00
14057;DHT22;7103;54.300;10.180;2022-07-04T15:29:22;22.60;1.00
14057;DHT22;7103;54.300;10.180;2022-07-04T15:31:49;22.80;1.00
14057;DHT22;7103;54.300;10.180;2022-07-04T15:34:17;22.90;1.00
14057;DHT22;7103;54.300;10.180;2022-07-04T15:36:44;23.10;1.00
14057;DHT22;7103;54.300;10.180;2022-07-04T15:39:13;22.90;1.00
14057;DHT22;7103;54.300;10.180;2022-07-04T15:41:41;22.70;1.00
14057;DHT22;7103;54.300;10.180;2022-07-04T15:44:08;22.80;1.00
14057;DHT22;7103;54.300;10.180;2022-07-04T15:46:36;22.50;1.00
14057;DHT22;7103;54.300;10.180;2022-07-04T15:49:23;22.30;1.00
14057;DHT22;7103;54.300;10.180;2022-07-04T15:51:49;22.10;1.00
14057;DHT22;7103;54.300;10.180;2022-07-04T15:54:16;22.10;1.00
14057;DHT22;7103;54.300;10.180;2022-07-04T15:56:43;22.20;1.00
14057;DHT22;7103;54.300;10.180;2022-07-04T15:59:10;22.40;1.00
14057;DHT22;7103;54.300;10.180;2022-07-04T16:01:37;22.10;1.00
14057;DHT22;7103;54.300;10.180;2022-07-04T16:04:04;21.80;1.00
14057;DHT22;7103;54.300;10.180;2022-07-04T16:06:31;21.90;1.00
14057;DHT22;7103;54.300;10.180;2022-07-04T16:08:58;22.00;1.00
14057;DHT22;7103;54.300;10.180;2022-07-04T16:11:25;21.90;1.00
14057;DHT22;7103;54.300;10.180;2022-07-04T16:13:52;21.80;1.00
14057;DHT22;7103;54.300;10.180;2022-07-04T16:16:20;21.70;1.00
14057;DHT22;7103;54.300;10.180;2022-07-04T16:18:49;21.70;1.00
14057;DHT22;7103;54.300;10.180;2022-07-04T16:21:15;21.80;1.00
14057;DHT22;7103;54.300;10.180;2022-07-04T16:23:42;21.80;1.00